sensor_id;sensor_type;location;lat;lon;timestamp;pressure;altitude;pressure_sealevel;temperature;humidity
7834;BME280;3962;42.696;23.354;2023-05-23T00:02:20;95055.56;;;12.69;100.00
7834;BME280;3962;42.696;23.354;2023-05-23T00:04:47;95056.56;;;12.68;100.00
7834;BME280;3962;42.696;23.354;2023-05-23T00:07:14;95053.91;;;12.60;100.00
7834;BME280;3962;42.696;23.354;2023-05-23T00:09:42;95054.91;;;12.67;100.00
7834;BME280;3962;42.696;23.354;2023-05-23T00:12:09;95055.88;;;12.66;100.00
7834;BME280;3962;42.696;23.354;2023-05-23T00:14:36;95059.75;;;12.64;100.00
7834;BME280;3962;42.696;23.354;2023-05-23T00:17:04;95053.53;;;12.55;100.00
7834;BME280;3962;42.696;23.354;2023-05-23T00:19:32;95047.38;;;12.47;100.00
7834;BME280;3962;42.696;23.354;2023-05-23T00:22:00;95057.84;;;12.40;100.00
7834;BME280;3962;42.696;23.354;2023-05-23T00:24:27;95053.38;;;12.41;100.00
7834;BME280;3962;42.696;23.354;2023-05-23T00:26:55;95054.19;;;12.41;100.00
7834;BME280;3962;42.696;23.354;2023-05-23T00:29:23;95066.06;;;12.47;100.00
7834;BME280;3962;42.696;23.354;2023-05-23T00:31:50;95054.84;;;12.35;100.00
7834;BME280;3962;42.696;23.354;2023-05-23T00:34:17;95050.66;;;12.25;100.00
7834;BME280;3962;42.696;23.354;2023-05-23T00:36:44;95053.97;;;12.19;100.00
7834;BME280;3962;42.696;23.354;2023-05-23T00:39:11;95053.94;;;12.11;100.00
7834;BME280;3962;42.696;23.354;2023-05-23T00:41:44;95053.28;;;12.09;100.00
7834;BME280;3962;42.696;23.354;2023-05-23T00:44:12;95046.91;;;12.02;100.00
7834;BME280;3962;42.696;23.354;2023-05-23T00:46:39;95050.75;;;12.07;100.00
7834;BME280;3962;42.696;23.354;2023-05-23T00:49:08;95050.13;;;12.13;100.00
7834;BME280;3962;42.696;23.354;2023-05-23T00:51:35;95044.44;;;12.16;100.00
7834;BME280;3962;42.696;23.354;2023-05-23T00:54:03;95045.78;;;12.12;100.00
7834;BME280;3962;42.696;23.354;2023-05-23T00:56:30;95049.31;;;12.21;100.00
7834;BME280;3962;42.696;23.354;2023-05-23T00:58:58;95055.63;;;12.20;100.00
7834;BME280;3962;42.696;23.354;2023-05-23T01:01:27;95047.28;;;12.15;100.00
7834;BME280;3962;42.696;23.354;2023-05-23T01:03:54;95058.78;;;12.15;100.00
7834;BME280;3962;42.696;23.354;2023-05-23T01:06:21;95058.28;;;12.12;100.00
7834;BME280;3962;42.696;23.354;2023-05-23T01:08:48;95059.75;;;12.06;100.00
7834;BME280;3962;42.696;23.354;2023-05-23T01:11:19;95061.06;;;12.02;100.00
7834;BME280;3962;42.696;23.354;2023-05-23T01:13:55;95053.41;;;11.99;100.00
7834;BME280;3962;42.696;23.354;2023-05-23T01:16:33;95055.22;;;11.99;100.00
7834;BME280;3962;42.696;23.354;2023-05-23T01:19:13;95049.22;;;11.97;100.00
7834;BME280;3962;42.696;23.354;2023-05-23T01:21:50;95050.06;;;11.97;100.00
7834;BME280;3962;42.696;23.354;2023-05-23T01:24:31;95055.91;;;12.01;100.00
7834;BME280;3962;42.696;23.354;2023-05-23T01:27:07;95062.72;;;11.95;100.00
7834;BME280;3962;42.696;23.354;2023-05-23T01:29:42;95055.41;;;11.97;100.00
7834;BME280;3962;42.696;23.354;2023-05-23T01:32:11;95046.72;;;12.03;100.00
7834;BME280;3962;42.696;23.354;2023-05-23T01:34:40;95051.25;;;12.03;100.00
7834;BME280;3962;42.696;23.354;2023-05-23T01:37:08;95054.09;;;12.09;100.00
7834;BME280;3962;42.696;23.354;2023-05-23T01:39:35;95053.75;;;12.04;100.00
7834;BME280;3962;42.696;23.354;2023-05-23T01:42:03;95051.41;;;12.01;100.00
7834;BME280;3962;42.696;23.354;2023-05-23T01:44:31;95049.25;;;12.05;100.00
7834;BME280;3962;42.696;23.354;2023-05-23T01:47:00;95045.06;;;12.02;100.00
7834;BME280;3962;42.696;23.354;2023-05-23T01:49:29;95042.75;;;11.99;100.00
7834;BME280;3962;42.696;23.354;2023-05-23T01:51:58;95040.75;;;12.01;100.00
7834;BME280;3962;42.696;23.354;2023-05-23T01:54:26;95044.41;;;12.00;100.00
7834;BME280;3962;42.696;23.354;2023-05-23T01:56:54;95036.22;;;11.94;100.00
7834;BME280;3962;42.696;23.354;2023-05-23T01:59:22;95040.06;;;11.99;100.00
7834;BME280;3962;42.696;23.354;2023-05-23T02:01:48;95043.88;;;11.97;100.00
7834;BME280;3962;42.696;23.354;2023-05-23T02:04:17;95040.72;;;11.93;100.00
7834;BME280;3962;42.696;23.354;2023-05-23T02:06:44;95044.97;;;11.78;100.00
7834;BME280;3962;42.696;23.354;2023-05-23T02:09:11;95050.22;;;11.62;100.00
7834;BME280;3962;42.696;23.354;2023-05-23T02:11:38;95044.84;;;11.54;100.00
7834;BME280;3962;42.696;23.354;2023-05-23T02:14:05;95048.97;;;11.49;100.00
7834;BME280;3962;42.696;23.354;2023-05-23T02:16:32;95042.78;;;11.48;100.00
7834;BME280;3962;42.696;23.354;2023-05-23T02:19:00;95045.59;;;11.39;100.00
7834;BME280;3962;42.696;23.354;2023-05-23T02:21:29;95048.72;;;11.34;100.00
7834;BME280;3962;42.696;23.354;2023-05-23T02:23:57;95039.22;;;11.32;100.00
7834;BME280;3962;42.696;23.354;2023-05-23T02:26:23;95043.69;;;11.31;100.00
7834;BME280;3962;42.696;23.354;2023-05-23T02:28:52;95039.69;;;11.27;100.00
7834;BME280;3962;42.696;23.354;2023-05-23T02:31:19;95040.31;;;11.21;100.00
7834;BME280;3962;42.696;23.354;2023-05-23T02:33:46;95043.97;;;11.20;100.00
7834;BME280;3962;42.696;23.354;2023-05-23T02:36:13;95039.50;;;11.21;100.00
7834;BME280;3962;42.696;23.354;2023-05-23T02:38:41;95040.66;;;11.18;100.00
7834;BME280;3962;42.696;23.354;2023-05-23T02:41:08;95043.66;;;11.23;100.00
7834;BME280;3962;42.696;23.354;2023-05-23T02:43:35;95039.84;;;11.26;100.00
7834;BME280;3962;42.696;23.354;2023-05-23T02:46:02;95042.22;;;11.29;100.00
7834;BME280;3962;42.696;23.354;2023-05-23T02:48:29;95041.75;;;11.33;100.00
7834;BME280;3962;42.696;23.354;2023-05-23T02:50:55;95033.09;;;11.39;100.00
7834;BME280;3962;42.696;23.354;2023-05-23T02:53:22;95041.09;;;11.39;100.00
7834;BME280;3962;42.696;23.354;2023-05-23T02:55:50;95038.09;;;11.34;100.00
7834;BME280;3962;42.696;23.354;2023-05-23T02:58:17;95026.00;;;11.22;100.00
7834;BME280;3962;42.696;23.354;2023-05-23T03:00:45;95031.81;;;11.18;100.00
7834;BME280;3962;42.696;23.354;2023-05-23T03:03:11;95030.13;;;11.17;100.00
7834;BME280;3962;42.696;23.354;2023-05-23T03:05:39;95033.31;;;11.20;100.00
7834;BME280;3962;42.696;23.354;2023-05-23T03:08:06;95036.13;;;11.19;100.00
7834;BME280;3962;42.696;23.354;2023-05-23T03:10:33;95035.13;;;11.20;100.00
7834;BME280;3962;42.696;23.354;2023-05-23T03:13:01;95032.38;;;11.29;100.00
7834;BME280;3962;42.696;23.354;2023-05-23T03:15:28;95031.56;;;11.29;100.00
7834;BME280;3962;42.696;23.354;2023-05-23T03:17:55;95033.22;;;11.30;100.00
7834;BME280;3962;42.696;23.354;2023-05-23T03:20:21;95039.19;;;11.24;100.00
7834;BME280;3962;42.696;23.354;2023-05-23T03:22:48;95036.88;;;11.29;100.00
7834;BME280;3962;42.696;23.354;2023-05-23T03:25:15;95040.75;;;11.34;100.00
7834;BME280;3962;42.696;23.354;2023-05-23T03:27:42;95043.06;;;11.37;100.00
7834;BME280;3962;42.696;23.354;2023-05-23T03:30:11;95042.94;;;11.39;100.00
7834;BME280;3962;42.696;23.354;2023-05-23T03:32:39;95049.59;;;11.43;100.00
7834;BME280;3962;42.696;23.354;2023-05-23T03:35:07;95049.13;;;11.47;100.00
7834;BME280;3962;42.696;23.354;2023-05-23T03:37:33;95053.97;;;11.52;100.00
7834;BME280;3962;42.696;23.354;2023-05-23T03:40:00;95053.81;;;11.53;100.00
7834;BME280;3962;42.696;23.354;2023-05-23T03:42:28;95055.22;;;11.57;100.00
7834;BME280;3962;42.696;23.354;2023-05-23T03:44:55;95057.63;;;11.51;100.00
7834;BME280;3962;42.696;23.354;2023-05-23T03:47:23;95060.63;;;11.73;100.00
7834;BME280;3962;42.696;23.354;2023-05-23T03:49:50;95054.63;;;11.79;100.00
7834;BME280;3962;42.696;23.354;2023-05-23T03:52:17;95059.69;;;11.82;100.00
7834;BME280;3962;42.696;23.354;2023-05-23T03:54:44;95073.31;;;11.79;100.00
7834;BME280;3962;42.696;23.354;2023-05-23T03:57:11;95076.97;;;11.78;100.00
7834;BME280;3962;42.696;23.354;2023-05-23T03:59:37;95076.28;;;11.76;100.00
7834;BME280;3962;42.696;23.354;2023-05-23T04:02:05;95072.34;;;11.80;100.00
7834;BME280;3962;42.696;23.354;2023-05-23T04:04:33;95059.75;;;12.06;100.00
7834;BME280;3962;42.696;23.354;2023-05-23T04:06:59;95060.44;;;12.08;100.00
7834;BME280;3962;42.696;23.354;2023-05-23T04:09:27;95056.47;;;12.20;100.00
7834;BME280;3962;42.696;23.354;2023-05-23T04:11:53;95050.03;;;12.47;100.00
7834;BME280;3962;42.696;23.354;2023-05-23T04:14:21;95059.19;;;12.36;100.00
7834;BME280;3962;42.696;23.354;2023-05-23T04:16:47;95055.69;;;12.44;100.00
7834;BME280;3962;42.696;23.354;2023-05-23T04:19:14;95067.88;;;12.46;100.00
7834;BME280;3962;42.696;23.354;2023-05-23T04:21:43;95058.72;;;12.49;100.00
7834;BME280;3962;42.696;23.354;2023-05-23T04:24:10;95063.53;;;12.45;100.00
7834;BME280;3962;42.696;23.354;2023-05-23T04:26:37;95065.84;;;12.40;100.00
7834;BME280;3962;42.696;23.354;2023-05-23T04:29:04;95068.81;;;12.21;100.00
7834;BME280;3962;42.696;23.354;2023-05-23T04:31:31;95068.59;;;12.07;100.00
7834;BME280;3962;42.696;23.354;2023-05-23T04:33:59;95067.06;;;11.96;100.00
7834;BME280;3962;42.696;23.354;2023-05-23T04:36:26;95064.41;;;11.96;100.00
7834;BME280;3962;42.696;23.354;2023-05-23T04:38:56;95064.38;;;11.88;100.00
7834;BME280;3962;42.696;23.354;2023-05-23T04:41:23;95071.47;;;11.80;100.00
7834;BME280;3962;42.696;23.354;2023-05-23T04:43:49;95074.44;;;11.69;100.00
7834;BME280;3962;42.696;23.354;2023-05-23T04:46:23;95082.91;;;11.64;100.00
7834;BME280;3962;42.696;23.354;2023-05-23T04:48:51;95081.94;;;11.48;100.00
7834;BME280;3962;42.696;23.354;2023-05-23T04:51:19;95088.88;;;11.41;100.00
7834;BME280;3962;42.696;23.354;2023-05-23T04:53:48;95071.38;;;11.38;100.00
7834;BME280;3962;42.696;23.354;2023-05-23T04:56:16;95078.28;;;11.49;100.00
7834;BME280;3962;42.696;23.354;2023-05-23T04:58:45;95069.00;;;11.53;100.00
7834;BME280;3962;42.696;23.354;2023-05-23T05:01:12;95083.53;;;11.58;100.00
7834;BME280;3962;42.696;23.354;2023-05-23T05:03:40;95082.91;;;11.64;100.00
7834;BME280;3962;42.696;23.354;2023-05-23T05:06:07;95080.72;;;11.68;100.00
7834;BME280;3962;42.696;23.354;2023-05-23T05:08:33;95090.94;;;11.72;100.00
7834;BME280;3962;42.696;23.354;2023-05-23T05:11:00;95093.63;;;11.72;100.00
7834;BME280;3962;42.696;23.354;2023-05-23T05:13:29;95095.00;;;11.84;100.00
7834;BME280;3962;42.696;23.354;2023-05-23T05:15:57;95096.53;;;11.95;100.00
7834;BME280;3962;42.696;23.354;2023-05-23T05:18:24;95100.41;;;12.00;100.00
7834;BME280;3962;42.696;23.354;2023-05-23T05:20:52;95098.75;;;12.07;100.00
7834;BME280;3962;42.696;23.354;2023-05-23T05:23:20;95101.63;;;12.14;100.00
7834;BME280;3962;42.696;23.354;2023-05-23T05:25:48;95096.94;;;12.08;100.00
7834;BME280;3962;42.696;23.354;2023-05-23T05:28:15;95102.59;;;12.05;100.00
7834;BME280;3962;42.696;23.354;2023-05-23T05:30:43;95096.78;;;12.17;100.00
7834;BME280;3962;42.696;23.354;2023-05-23T05:33:10;95095.78;;;12.18;100.00
7834;BME280;3962;42.696;23.354;2023-05-23T05:35:37;95094.19;;;12.33;100.00
7834;BME280;3962;42.696;23.354;2023-05-23T05:38:05;95092.19;;;12.27;100.00
7834;BME280;3962;42.696;23.354;2023-05-23T05:40:33;95092.78;;;12.13;100.00
7834;BME280;3962;42.696;23.354;2023-05-23T05:43:00;95098.66;;;12.17;100.00
7834;BME280;3962;42.696;23.354;2023-05-23T05:45:27;95094.81;;;12.19;100.00
7834;BME280;3962;42.696;23.354;2023-05-23T05:47:55;95099.94;;;12.13;100.00
7834;BME280;3962;42.696;23.354;2023-05-23T05:50:22;95101.06;;;12.44;100.00
7834;BME280;3962;42.696;23.354;2023-05-23T05:52:49;95101.75;;;12.54;100.00
7834;BME280;3962;42.696;23.354;2023-05-23T05:55:16;95101.94;;;12.68;100.00
7834;BME280;3962;42.696;23.354;2023-05-23T05:57:43;95102.47;;;12.80;100.00
7834;BME280;3962;42.696;23.354;2023-05-23T06:00:12;95103.00;;;12.91;100.00
7834;BME280;3962;42.696;23.354;2023-05-23T06:02:40;95113.53;;;13.01;100.00
7834;BME280;3962;42.696;23.354;2023-05-23T06:05:15;95101.84;;;13.10;100.00
7834;BME280;3962;42.696;23.354;2023-05-23T06:07:47;95104.53;;;13.26;100.00
7834;BME280;3962;42.696;23.354;2023-05-23T06:10:16;95108.03;;;13.18;100.00
7834;BME280;3962;42.696;23.354;2023-05-23T06:12:43;95107.19;;;13.10;100.00
7834;BME280;3962;42.696;23.354;2023-05-23T06:15:11;95090.69;;;13.14;100.00
7834;BME280;3962;42.696;23.354;2023-05-23T06:17:39;95119.56;;;13.35;100.00
7834;BME280;3962;42.696;23.354;2023-05-23T06:20:06;95113.19;;;13.52;100.00
7834;BME280;3962;42.696;23.354;2023-05-23T06:22:35;95102.97;;;13.71;99.56
7834;BME280;3962;42.696;23.354;2023-05-23T06:25:06;95103.47;;;13.67;97.98
7834;BME280;3962;42.696;23.354;2023-05-23T06:27:33;95110.78;;;13.89;98.41
7834;BME280;3962;42.696;23.354;2023-05-23T06:30:05;95111.97;;;13.78;97.24
7834;BME280;3962;42.696;23.354;2023-05-23T06:32:32;95112.09;;;13.93;97.19
7834;BME280;3962;42.696;23.354;2023-05-23T06:34:59;95102.31;;;14.16;96.54
7834;BME280;3962;42.696;23.354;2023-05-23T06:37:25;95096.50;;;14.12;95.51
7834;BME280;3962;42.696;23.354;2023-05-23T06:39:54;95108.53;;;14.16;96.20
7834;BME280;3962;42.696;23.354;2023-05-23T06:42:21;95110.94;;;14.42;94.31
7834;BME280;3962;42.696;23.354;2023-05-23T06:44:47;95114.75;;;14.47;92.82
7834;BME280;3962;42.696;23.354;2023-05-23T06:47:14;95109.59;;;14.46;93.13
7834;BME280;3962;42.696;23.354;2023-05-23T06:49:41;95108.06;;;14.51;92.92
7834;BME280;3962;42.696;23.354;2023-05-23T06:52:08;95102.50;;;14.61;92.37
7834;BME280;3962;42.696;23.354;2023-05-23T06:54:35;95104.84;;;14.56;92.78
7834;BME280;3962;42.696;23.354;2023-05-23T06:57:04;95104.22;;;14.76;91.71
7834;BME280;3962;42.696;23.354;2023-05-23T06:59:31;95103.03;;;14.78;91.14
7834;BME280;3962;42.696;23.354;2023-05-23T07:01:58;95111.03;;;15.54;91.49
7834;BME280;3962;42.696;23.354;2023-05-23T07:04:25;95099.97;;;16.73;85.63
7834;BME280;3962;42.696;23.354;2023-05-23T07:06:52;95092.06;;;17.42;80.38
7834;BME280;3962;42.696;23.354;2023-05-23T07:09:19;95102.19;;;18.16;78.36
7834;BME280;3962;42.696;23.354;2023-05-23T07:11:48;95105.66;;;18.84;73.68
7834;BME280;3962;42.696;23.354;2023-05-23T07:16:51;95098.59;;;19.30;72.19
7834;BME280;3962;42.696;23.354;2023-05-23T07:19:18;95093.03;;;19.58;70.89
7834;BME280;3962;42.696;23.354;2023-05-23T07:21:44;95093.25;;;19.69;70.03
7834;BME280;3962;42.696;23.354;2023-05-23T07:24:11;95088.66;;;19.63;69.12
7834;BME280;3962;42.696;23.354;2023-05-23T07:26:39;95086.38;;;19.93;68.59
7834;BME280;3962;42.696;23.354;2023-05-23T07:29:05;95090.56;;;20.08;67.97
7834;BME280;3962;42.696;23.354;2023-05-23T07:31:35;95083.66;;;20.32;67.16
7834;BME280;3962;42.696;23.354;2023-05-23T07:34:05;95069.03;;;20.59;66.38
7834;BME280;3962;42.696;23.354;2023-05-23T07:36:32;95077.72;;;20.67;65.79
7834;BME280;3962;42.696;23.354;2023-05-23T07:39:00;95078.47;;;20.94;65.06
7834;BME280;3962;42.696;23.354;2023-05-23T07:44:03;95075.13;;;20.98;63.96
7834;BME280;3962;42.696;23.354;2023-05-23T07:46:30;95043.72;;;20.97;65.01
7834;BME280;3962;42.696;23.354;2023-05-23T07:48:56;95074.25;;;21.79;63.02
7834;BME280;3962;42.696;23.354;2023-05-23T07:51:26;95069.31;;;21.63;62.93
7834;BME280;3962;42.696;23.354;2023-05-23T07:56:29;95074.97;;;21.62;62.74
7834;BME280;3962;42.696;23.354;2023-05-23T08:01:28;95066.06;;;21.55;62.54
7834;BME280;3962;42.696;23.354;2023-05-23T08:03:57;95069.25;;;21.45;63.06
7834;BME280;3962;42.696;23.354;2023-05-23T08:06:26;95058.41;;;21.45;62.89
7834;BME280;3962;42.696;23.354;2023-05-23T08:08:53;95069.25;;;21.76;62.00
7834;BME280;3962;42.696;23.354;2023-05-23T08:11:21;95060.06;;;21.77;61.74
7834;BME280;3962;42.696;23.354;2023-05-23T08:13:48;95051.84;;;21.59;62.90
7834;BME280;3962;42.696;23.354;2023-05-23T08:16:14;95061.31;;;21.81;62.46
7834;BME280;3962;42.696;23.354;2023-05-23T08:18:44;95060.94;;;21.71;62.71
7834;BME280;3962;42.696;23.354;2023-05-23T08:23:42;95068.38;;;22.07;61.68
7834;BME280;3962;42.696;23.354;2023-05-23T08:26:09;95068.38;;;22.07;61.39
7834;BME280;3962;42.696;23.354;2023-05-23T08:31:11;95055.91;;;22.24;60.95
7834;BME280;3962;42.696;23.354;2023-05-23T08:33:52;95071.50;;;22.28;61.42
7834;BME280;3962;42.696;23.354;2023-05-23T08:36:22;95061.97;;;22.44;61.06
7834;BME280;3962;42.696;23.354;2023-05-23T08:39:05;95056.91;;;23.01;61.11
7834;BME280;3962;42.696;23.354;2023-05-23T08:41:33;95056.19;;;23.41;58.45
7834;BME280;3962;42.696;23.354;2023-05-23T08:44:00;95057.31;;;22.87;59.19
7834;BME280;3962;42.696;23.354;2023-05-23T08:46:28;95051.84;;;22.75;59.59
7834;BME280;3962;42.696;23.354;2023-05-23T08:49:09;95044.63;;;22.98;59.25
7834;BME280;3962;42.696;23.354;2023-05-23T08:51:42;95053.66;;;23.28;59.39
7834;BME280;3962;42.696;23.354;2023-05-23T08:54:24;95053.41;;;23.59;57.91
7834;BME280;3962;42.696;23.354;2023-05-23T08:56:52;95048.56;;;23.61;57.97
7834;BME280;3962;42.696;23.354;2023-05-23T08:59:25;95057.84;;;23.42;57.90
7834;BME280;3962;42.696;23.354;2023-05-23T09:20:09;95041.66;;;23.77;54.75
7834;BME280;3962;42.696;23.354;2023-05-23T09:22:36;95016.72;;;23.80;55.06
7834;BME280;3962;42.696;23.354;2023-05-23T09:25:04;95027.34;;;23.70;56.26
7834;BME280;3962;42.696;23.354;2023-05-23T09:27:33;95019.59;;;23.55;55.56
7834;BME280;3962;42.696;23.354;2023-05-23T09:30:05;95027.31;;;23.58;53.82
7834;BME280;3962;42.696;23.354;2023-05-23T09:32:33;95024.88;;;23.80;53.02
7834;BME280;3962;42.696;23.354;2023-05-23T09:35:21;95010.13;;;24.10;52.20
7834;BME280;3962;42.696;23.354;2023-05-23T09:37:50;95019.38;;;24.32;47.57
7834;BME280;3962;42.696;23.354;2023-05-23T09:40:20;95020.06;;;24.62;46.57
7834;BME280;3962;42.696;23.354;2023-05-23T09:42:52;95011.09;;;24.39;46.52
7834;BME280;3962;42.696;23.354;2023-05-23T09:45:19;95000.22;;;24.39;48.04
7834;BME280;3962;42.696;23.354;2023-05-23T09:47:51;95001.38;;;24.43;47.68
7834;BME280;3962;42.696;23.354;2023-05-23T09:50:21;94992.91;;;24.05;46.43
7834;BME280;3962;42.696;23.354;2023-05-23T09:52:48;95003.41;;;23.90;47.57
7834;BME280;3962;42.696;23.354;2023-05-23T09:55:19;94994.09;;;23.97;47.98
7834;BME280;3962;42.696;23.354;2023-05-23T09:57:49;95001.69;;;23.77;47.04
7834;BME280;3962;42.696;23.354;2023-05-23T10:00:19;94988.41;;;23.46;46.47
7834;BME280;3962;42.696;23.354;2023-05-23T10:03:07;94992.78;;;23.88;47.11
7834;BME280;3962;42.696;23.354;2023-05-23T10:05:42;94987.59;;;24.21;46.86
7834;BME280;3962;42.696;23.354;2023-05-23T10:08:13;94986.28;;;24.12;44.41
7834;BME280;3962;42.696;23.354;2023-05-23T10:16:34;94989.69;;;23.85;45.23
7834;BME280;3962;42.696;23.354;2023-05-23T10:19:14;94985.88;;;23.74;45.90
7834;BME280;3962;42.696;23.354;2023-05-23T10:21:49;94978.72;;;23.91;45.19
7834;BME280;3962;42.696;23.354;2023-05-23T10:24:25;94972.41;;;24.37;44.52
7834;BME280;3962;42.696;23.354;2023-05-23T10:26:56;94972.91;;;23.88;43.82
7834;BME280;3962;42.696;23.354;2023-05-23T10:29:27;94975.44;;;23.60;42.00
7834;BME280;3962;42.696;23.354;2023-05-23T10:31:59;94970.69;;;23.44;42.90
7834;BME280;3962;42.696;23.354;2023-05-23T10:34:38;94973.81;;;23.70;44.13
7834;BME280;3962;42.696;23.354;2023-05-23T10:37:28;94976.31;;;23.72;43.04
7834;BME280;3962;42.696;23.354;2023-05-23T10:40:00;94969.50;;;23.92;43.45
7834;BME280;3962;42.696;23.354;2023-05-23T10:45:15;94965.13;;;24.14;42.47
7834;BME280;3962;42.696;23.354;2023-05-23T10:53:19;94961.19;;;24.22;41.20
7834;BME280;3962;42.696;23.354;2023-05-23T10:55:51;94946.28;;;23.78;41.18
7834;BME280;3962;42.696;23.354;2023-05-23T10:58:19;94946.03;;;23.45;42.01
7834;BME280;3962;42.696;23.354;2023-05-23T11:00:51;94945.94;;;23.75;41.53
7834;BME280;3962;42.696;23.354;2023-05-23T11:03:30;94953.19;;;23.92;41.40
7834;BME280;3962;42.696;23.354;2023-05-23T11:05:59;94945.47;;;24.35;40.75
7834;BME280;3962;42.696;23.354;2023-05-23T11:08:35;94941.22;;;24.28;40.89
7834;BME280;3962;42.696;23.354;2023-05-23T11:11:05;94938.38;;;24.23;40.21
7834;BME280;3962;42.696;23.354;2023-05-23T11:13:58;94943.34;;;24.37;40.30
7834;BME280;3962;42.696;23.354;2023-05-23T11:16:28;94946.50;;;24.46;39.07
7834;BME280;3962;42.696;23.354;2023-05-23T11:19:21;94930.00;;;24.24;39.45
7834;BME280;3962;42.696;23.354;2023-05-23T11:21:53;94945.25;;;24.25;40.65
7834;BME280;3962;42.696;23.354;2023-05-23T11:24:23;94921.13;;;24.29;40.42
7834;BME280;3962;42.696;23.354;2023-05-23T11:26:54;94926.16;;;24.60;38.97
7834;BME280;3962;42.696;23.354;2023-05-23T11:29:25;94927.72;;;25.12;38.85
7834;BME280;3962;42.696;23.354;2023-05-23T11:31:53;94933.38;;;24.66;38.89
7834;BME280;3962;42.696;23.354;2023-05-23T11:34:21;94935.28;;;24.93;38.93
7834;BME280;3962;42.696;23.354;2023-05-23T11:36:53;94919.44;;;24.90;39.32
7834;BME280;3962;42.696;23.354;2023-05-23T11:39:22;94935.25;;;24.65;39.60
7834;BME280;3962;42.696;23.354;2023-05-23T11:42:01;94920.72;;;24.48;39.22
7834;BME280;3962;42.696;23.354;2023-05-23T11:44:29;94914.22;;;24.49;39.72
7834;BME280;3962;42.696;23.354;2023-05-23T11:47:00;94918.34;;;24.52;40.51
7834;BME280;3962;42.696;23.354;2023-05-23T11:49:29;94909.38;;;24.51;40.01
7834;BME280;3962;42.696;23.354;2023-05-23T11:51:57;94915.69;;;24.29;40.30
7834;BME280;3962;42.696;23.354;2023-05-23T11:54:27;94912.84;;;24.75;39.31
7834;BME280;3962;42.696;23.354;2023-05-23T11:56:54;94917.47;;;25.02;40.25
7834;BME280;3962;42.696;23.354;2023-05-23T11:59:23;94898.72;;;24.89;39.39
7834;BME280;3962;42.696;23.354;2023-05-23T12:01:51;94894.00;;;24.45;40.68
7834;BME280;3962;42.696;23.354;2023-05-23T12:04:18;94901.78;;;23.91;41.83
7834;BME280;3962;42.696;23.354;2023-05-23T12:06:47;94896.72;;;23.94;42.02
7834;BME280;3962;42.696;23.354;2023-05-23T12:09:15;94902.59;;;23.80;38.77
7834;BME280;3962;42.696;23.354;2023-05-23T12:11:47;94884.66;;;23.79;39.24
7834;BME280;3962;42.696;23.354;2023-05-23T12:14:16;94886.50;;;24.24;38.91
7834;BME280;3962;42.696;23.354;2023-05-23T12:16:44;94875.94;;;24.39;38.65
7834;BME280;3962;42.696;23.354;2023-05-23T12:19:12;94879.88;;;25.16;37.25
7834;BME280;3962;42.696;23.354;2023-05-23T12:21:43;94881.41;;;25.23;38.79
7834;BME280;3962;42.696;23.354;2023-05-23T12:24:14;94883.44;;;24.72;39.27
7834;BME280;3962;42.696;23.354;2023-05-23T12:26:51;94877.56;;;23.78;40.67
7834;BME280;3962;42.696;23.354;2023-05-23T12:29:19;94877.56;;;23.78;41.60
7834;BME280;3962;42.696;23.354;2023-05-23T12:31:50;94868.56;;;23.77;41.49
7834;BME280;3962;42.696;23.354;2023-05-23T12:34:21;94873.75;;;24.53;39.89
7834;BME280;3962;42.696;23.354;2023-05-23T12:36:48;94867.41;;;24.08;38.58
7834;BME280;3962;42.696;23.354;2023-05-23T12:39:23;94863.84;;;24.07;38.04
7834;BME280;3962;42.696;23.354;2023-05-23T12:41:53;94856.75;;;23.83;36.93
7834;BME280;3962;42.696;23.354;2023-05-23T12:44:25;94864.53;;;24.14;36.35
7834;BME280;3962;42.696;23.354;2023-05-23T12:46:55;94856.16;;;24.44;35.85
7834;BME280;3962;42.696;23.354;2023-05-23T12:49:23;94850.91;;;24.65;35.86
7834;BME280;3962;42.696;23.354;2023-05-23T12:51:50;94851.22;;;24.97;35.15
7834;BME280;3962;42.696;23.354;2023-05-23T12:54:18;94858.25;;;24.65;36.24
7834;BME280;3962;42.696;23.354;2023-05-23T12:56:45;94846.84;;;24.00;37.07
7834;BME280;3962;42.696;23.354;2023-05-23T12:59:15;94855.22;;;23.99;37.51
7834;BME280;3962;42.696;23.354;2023-05-23T13:01:42;94854.72;;;24.25;37.21
7834;BME280;3962;42.696;23.354;2023-05-23T13:04:10;94837.06;;;24.39;35.77
7834;BME280;3962;42.696;23.354;2023-05-23T13:06:37;94841.25;;;24.58;35.31
7834;BME280;3962;42.696;23.354;2023-05-23T13:09:04;94828.34;;;24.25;36.82
7834;BME280;3962;42.696;23.354;2023-05-23T13:11:37;94830.91;;;23.92;36.56
7834;BME280;3962;42.696;23.354;2023-05-23T13:14:04;94831.75;;;23.47;37.87
7834;BME280;3962;42.696;23.354;2023-05-23T13:16:33;94821.31;;;24.01;37.79
7834;BME280;3962;42.696;23.354;2023-05-23T13:19:01;94830.53;;;24.40;37.58
7834;BME280;3962;42.696;23.354;2023-05-23T13:21:28;94828.50;;;24.47;38.33
7834;BME280;3962;42.696;23.354;2023-05-23T13:23:56;94833.69;;;24.20;37.62
7834;BME280;3962;42.696;23.354;2023-05-23T13:26:23;94835.81;;;24.07;37.52
7834;BME280;3962;42.696;23.354;2023-05-23T13:28:50;94835.03;;;24.06;36.33
7834;BME280;3962;42.696;23.354;2023-05-23T13:31:17;94838.66;;;24.12;36.25
7834;BME280;3962;42.696;23.354;2023-05-23T13:33:45;94829.22;;;24.42;36.40
7834;BME280;3962;42.696;23.354;2023-05-23T13:36:12;94828.03;;;24.94;35.98
7834;BME280;3962;42.696;23.354;2023-05-23T13:38:39;94837.91;;;24.84;35.50
7834;BME280;3962;42.696;23.354;2023-05-23T13:41:06;94836.75;;;24.24;34.83
7834;BME280;3962;42.696;23.354;2023-05-23T13:43:33;94835.50;;;24.03;36.05
7834;BME280;3962;42.696;23.354;2023-05-23T13:46:00;94836.56;;;23.91;35.77
7834;BME280;3962;42.696;23.354;2023-05-23T13:48:27;94838.06;;;24.21;36.23
7834;BME280;3962;42.696;23.354;2023-05-23T13:51:00;94834.69;;;24.70;35.95
7834;BME280;3962;42.696;23.354;2023-05-23T13:53:31;94838.94;;;24.94;35.02
7834;BME280;3962;42.696;23.354;2023-05-23T13:55:58;94846.47;;;24.76;34.88
7834;BME280;3962;42.696;23.354;2023-05-23T13:58:25;94839.34;;;24.19;36.17
7834;BME280;3962;42.696;23.354;2023-05-23T14:00:52;94838.84;;;23.48;36.87
7834;BME280;3962;42.696;23.354;2023-05-23T14:03:19;94833.41;;;23.59;35.63